Time;durP1;ratioP1;P1;durP2;ratioP2;P2;SDS_P1;SDS_P2;PMS_P1;PMS_P2;Temp;Humidity;BMP_temperature;BMP_pressure;BME280_temperature;BME280_humidity;BME280_pressure;Samples;Min_cycle;Max_cycle;Signal;HPM_P1;HPM_P2
2021/08/30 00:01:29;;;;;;;10.05;7.93;;;20.00;99.90;;;20.38;74.33;102079.22;5095988;28;20043;-72
2021/08/30 00:03:59;;;;;;;10.82;7.97;;;20.00;99.90;;;20.37;74.29;102066.72;5096184;28;20052;-73
2021/08/30 00:06:28;;;;;;;10.57;8.20;;;20.10;99.90;;;20.35;74.50;102065.00;5113772;28;20093;-73
2021/08/30 00:08:56;;;;;;;10.75;7.85;;;20.10;99.90;;;20.26;74.50;102057.19;5113702;28;20054;-72
2021/08/30 00:11:24;;;;;;;12.65;8.18;;;20.00;99.90;;;20.37;74.57;102077.47;5113912;28;20100;-72
2021/08/30 00:13:53;;;;;;;11.00;8.40;;;20.10;99.90;;;20.31;74.38;102069.56;5113849;28;20458;-73
2021/08/30 00:16:21;;;;;;;13.23;8.30;;;20.10;99.90;;;20.33;74.57;102070.41;5113733;28;20035;-72
2021/08/30 00:18:50;;;;;;;15.30;8.65;;;20.00;99.90;;;20.41;74.47;102078.28;5114038;28;20043;-72
2021/08/30 00:21:20;;;;;;;12.18;8.98;;;20.00;99.90;;;20.30;74.77;102070.50;5113671;28;20460;-72
2021/08/30 00:23:48;;;;;;;14.57;8.83;;;20.00;99.90;;;20.33;74.75;102081.16;5113376;28;20142;-73
2021/08/30 00:26:17;;;;;;;12.63;8.65;;;20.00;99.90;;;20.36;74.80;102073.00;5113870;28;20044;-73
2021/08/30 00:28:45;;;;;;;11.48;8.38;;;20.00;99.90;;;20.42;74.68;102077.38;5113532;28;20134;-72
2021/08/30 00:31:14;;;;;;;11.55;9.02;;;20.00;99.90;;;20.40;74.77;102071.16;5113466;28;20089;-72
2021/08/30 00:33:42;;;;;;;12.70;8.80;;;20.10;99.90;;;20.45;74.61;102077.28;5113183;28;20494;-73
2021/08/30 00:36:11;;;;;;;13.70;8.95;;;20.10;99.90;;;20.36;74.78;102081.06;5113084;28;20047;-73
2021/08/30 00:38:41;;;;;;;13.93;9.00;;;20.00;99.90;;;20.45;74.77;102083.56;5112946;28;20093;-73
2021/08/30 00:41:09;;;;;;;14.50;9.30;;;20.00;99.90;;;20.33;74.94;102074.91;5112755;28;20043;-73
2021/08/30 00:43:37;;;;;;;13.02;8.30;;;20.00;99.90;;;20.40;74.87;102082.75;5113014;28;20086;-74
2021/08/30 00:46:06;;;;;;;12.50;8.40;;;20.00;99.90;;;20.37;74.90;102077.47;5112900;28;20139;-72
2021/08/30 00:48:35;;;;;;;10.13;7.93;;;20.10;99.90;;;20.15;74.76;102049.34;5113448;28;20126;-73
2021/08/30 00:51:03;;;;;;;10.18;8.68;;;20.00;99.90;;;20.39;74.70;102085.50;5113178;28;20036;-73
2021/08/30 00:53:32;;;;;;;11.63;8.85;;;20.00;99.90;;;20.32;74.93;102084.78;5113242;28;20092;-73
2021/08/30 00:56:02;;;;;;;9.93;8.27;;;19.90;99.90;;;20.29;75.00;102087.53;5112998;28;20071;-73
2021/08/30 00:58:30;;;;;;;12.32;9.38;;;19.90;99.90;;;20.29;75.10;102092.03;5113224;28;20089;-73
2021/08/30 01:00:59;;;;;;;9.98;8.00;;;19.90;99.90;;;20.28;75.39;102082.22;5113276;28;20130;-74
2021/08/30 01:03:27;;;;;;;12.25;8.70;;;19.90;99.90;;;20.23;75.74;102082.31;5113121;28;20104;-73
2021/08/30 01:06:06;;;;;;;11.32;8.38;;;19.90;99.90;;;20.30;75.30;102086.63;5112882;28;20040;-74
2021/08/30 01:08:42;;;;;;;10.88;8.43;;;20.00;99.90;;;20.28;75.47;102093.84;5112891;28;20039;-73
2021/08/30 01:11:19;;;;;;;10.23;8.63;;;19.90;99.90;;;20.32;75.26;102084.78;5113168;28;20051;-73
2021/08/30 01:13:55;;;;;;;11.07;8.43;;;19.90;99.90;;;20.29;75.23;102084.84;5113092;28;20044;-73
2021/08/30 01:16:26;;;;;;;13.88;8.80;;;19.90;99.90;;;20.31;75.46;102093.75;5112831;28;20456;-74
2021/08/30 01:18:59;;;;;;;8.93;8.02;;;19.90;99.90;;;20.28;75.34;102084.91;5094616;28;20044;-73
2021/08/30 01:21:33;;;;;;;12.60;9.35;;;20.00;99.90;;;20.28;75.44;102093.84;5113291;28;20055;-73
2021/08/30 01:24:07;;;;;;;11.50;8.80;;;19.90;99.90;;;20.33;75.49;102096.41;5112726;28;20035;-73
2021/08/30 01:26:41;;;;;;;14.35;9.15;;;19.90;99.90;;;20.19;75.14;102056.44;5113011;28;20039;-73
2021/08/30 01:29:19;;;;;;;11.20;9.00;;;20.00;99.90;;;20.37;75.33;102090.03;5112653;28;20048;-73
2021/08/30 01:31:55;;;;;;;12.65;9.05;;;20.00;99.90;;;20.35;75.14;102095.44;5112620;28;20047;-72
2021/08/30 01:34:27;;;;;;;13.65;9.48;;;20.00;99.90;;;20.45;75.12;102099.69;5112803;28;20427;-73
2021/08/30 01:36:57;;;;;;;12.43;9.40;;;20.00;99.90;;;20.25;75.12;102072.41;5112844;28;20105;-73
2021/08/30 01:39:30;;;;;;;11.80;9.00;;;20.00;99.90;;;20.40;75.42;102103.41;5112442;28;20047;-73
2021/08/30 01:42:00;;;;;;;11.88;8.70;;;20.00;99.90;;;20.35;75.63;102106.19;5112850;28;20036;-73
2021/08/30 01:44:29;;;;;;;10.45;9.18;;;20.00;99.90;;;20.37;75.53;102107.03;5112533;28;20044;-73
2021/08/30 01:46:59;;;;;;;13.00;9.57;;;20.00;99.90;;;20.43;75.52;102106.91;5112326;28;20067;-73
2021/08/30 01:49:29;;;;;;;14.27;11.05;;;20.00;99.90;;;20.42;75.61;102107.81;5112430;28;20050;-73
2021/08/30 01:51:59;;;;;;;21.10;11.73;;;20.00;99.90;;;20.21;75.75;102070.72;5115678;28;20048;-73
2021/08/30 01:54:28;;;;;;;16.90;11.30;;;20.00;99.90;;;20.30;75.90;102101.88;5116210;28;20071;-73
2021/08/30 01:56:58;;;;;;;17.77;11.68;;;20.00;99.90;;;20.46;75.91;102095.19;5116179;28;20058;-72
2021/08/30 02:02:13;;;;;;;21.77;12.00;;;20.00;99.90;;;20.45;76.04;102106.84;5098277;28;20051;-73
2021/08/30 02:04:43;;;;;;;17.77;12.45;;;20.10;99.90;;;20.41;76.19;102099.78;5115973;28;20043;-72
2021/08/30 02:07:11;;;;;;;18.73;12.50;;;20.10;99.90;;;20.38;76.38;102092.66;5116144;28;20062;-73
2021/08/30 02:09:40;;;;;;;19.35;12.95;;;20.10;99.90;;;20.31;76.68;102095.56;5115861;28;20586;-72
2021/08/30 02:12:09;;;;;;;18.63;13.40;;;20.00;99.90;;;20.26;76.82;102090.31;5116264;28;20040;-72
2021/08/30 02:14:38;;;;;;;18.15;13.85;;;20.00;99.90;;;20.30;76.84;102099.19;5115807;28;20071;-72
2021/08/30 02:17:10;;;;;;;20.52;12.65;;;19.90;99.90;;;20.33;76.84;102099.09;5115786;28;20050;-72
2021/08/30 02:19:47;;;;;;;20.85;13.70;;;19.90;99.90;;;20.29;76.93;102105.47;5115793;28;20036;-72
2021/08/30 02:22:21;;;;;;;18.05;12.68;;;19.90;99.90;;;20.27;76.81;102105.50;5115855;28;20044;-72
2021/08/30 02:24:55;;;;;;;19.48;12.32;;;19.90;99.90;;;20.31;76.95;102107.19;5115661;28;20067;-72
2021/08/30 02:27:29;;;;;;;20.00;13.05;;;19.90;99.90;;;20.35;76.89;102108.88;5115905;28;20048;-72
2021/08/30 02:30:06;;;;;;;19.95;14.25;;;19.90;99.90;;;19.71;76.68;101994.03;5115691;28;20078;-72
2021/08/30 02:32:36;;;;;;;20.35;14.15;;;19.90;99.90;;;20.39;76.37;102098.94;5097554;28;20047;-72
2021/08/30 02:35:10;;;;;;;15.95;13.02;;;20.00;99.90;;;20.28;76.68;102096.53;5115833;28;20108;-72
2021/08/30 02:37:39;;;;;;;19.30;13.93;;;20.00;99.90;;;20.28;76.73;102095.66;5115913;28;20046;-72
2021/08/30 02:40:11;;;;;;;20.90;13.93;;;19.90;99.90;;;20.09;76.93;102059.38;5115331;28;20044;-72
2021/08/30 02:42:40;;;;;;;20.77;13.85;;;19.90;99.90;;;20.18;76.80;102084.25;5115687;28;20051;-72
2021/08/30 02:45:11;;;;;;;20.73;14.70;;;19.80;99.90;;;20.19;76.74;102083.31;5115118;28;20501;-72
2021/08/30 02:47:39;;;;;;;;;;;19.90;99.90;;;20.26;76.45;102090.31;5115707;28;20483;-72
2021/08/30 02:50:11;;;;;;;22.67;14.35;;;19.90;99.90;;;20.17;76.48;102077.06;5115414;28;20270;-72
2021/08/30 02:52:41;;;;;;;23.70;16.50;;;19.90;99.90;;;20.03;77.08;102076.53;5115373;28;20048;-72
2021/08/30 02:55:11;;;;;;;24.08;16.48;;;19.80;99.90;;;20.06;77.29;102079.13;5115073;28;20036;-72
2021/08/30 02:57:40;;;;;;;22.08;15.63;;;19.70;99.90;;;20.14;77.20;102081.63;5115372;28;20051;-72
2021/08/30 03:00:10;;;;;;;22.88;15.48;;;19.70;99.90;;;20.10;77.26;102083.50;5114940;28;20074;-72
2021/08/30 03:02:39;;;;;;;21.40;16.05;;;19.80;99.90;;;20.09;77.26;102076.34;5114424;28;20490;-72
2021/08/30 03:05:11;;;;;;;22.70;15.40;;;19.70;99.90;;;20.05;77.11;102076.47;5115388;28;20043;-72
2021/08/30 03:07:41;;;;;;;22.83;15.25;;;19.70;99.90;;;19.88;77.16;102063.44;5115384;28;20065;-73
2021/08/30 03:10:10;;;;;;;22.20;15.00;;;19.60;99.90;;;19.99;76.83;102071.25;5114957;28;20490;-73
2021/08/30 03:12:42;;;;;;;19.40;14.55;;;19.70;99.90;;;20.00;76.77;102063.16;5115126;28;20031;-72
2021/08/30 03:15:16;;;;;;;23.55;15.30;;;19.70;99.90;;;20.08;76.08;102071.91;5097082;28;20455;-72
2021/08/30 03:17:46;;;;;;;22.73;13.88;;;19.70;99.90;;;19.92;75.51;102057.06;5115315;28;20097;-72
2021/08/30 03:20:22;;;;;;;17.52;12.20;;;19.70;99.90;;;19.82;75.35;102043.91;5114703;28;20036;-72
2021/08/30 03:22:53;;;;;;;20.50;13.65;;;19.60;99.90;;;20.07;75.01;102074.66;5114950;28;20130;-73
2021/08/30 03:25:27;;;;;;;19.73;12.05;;;19.70;99.90;;;20.02;74.60;102068.47;5096417;28;20062;-72
2021/08/30 03:27:57;;;;;;;15.35;13.02;;;19.70;99.90;;;20.05;74.61;102076.47;5114540;28;20072;-72
2021/08/30 03:30:26;;;;;;;18.17;12.35;;;19.70;99.90;;;19.92;74.53;102088.44;5114587;28;20204;-72
2021/08/30 03:32:55;;;;;;;17.38;12.50;;;19.60;99.90;;;19.96;74.52;102077.56;5114315;28;20557;-73
2021/08/30 03:35:25;;;;;;;17.58;12.68;;;19.60;99.90;;;19.99;74.65;102074.81;5114282;28;20383;-73
2021/08/30 03:37:56;;;;;;;18.75;13.82;;;19.60;99.90;;;20.00;74.76;102073.00;5114582;28;20047;-72
2021/08/30 03:40:27;;;;;;;;;;;19.70;99.90;;;20.02;74.62;102057.72;5114970;28;20312;-72
2021/08/30 03:42:56;;;;;;;20.73;12.73;;;19.70;99.90;;;20.01;74.40;102053.28;5114252;28;19988;-72
2021/08/30 03:45:28;;;;;;;17.20;12.25;;;19.70;99.90;;;20.02;74.52;102055.03;5113839;28;20058;-72
2021/08/30 03:47:57;;;;;;;20.20;13.68;;;19.70;99.90;;;19.96;74.39;102053.41;5114625;28;20059;-72
2021/08/30 03:50:28;;;;;;;16.30;13.38;;;19.60;99.90;;;19.98;74.29;102048.88;5114005;28;20040;-72
2021/08/30 03:52:57;;;;;;;;;;;19.70;99.90;;;19.92;74.62;102043.63;5114964;28;20444;-73
2021/08/30 03:55:26;;;;;;;20.48;14.38;;;19.70;99.90;;;19.93;74.46;102049.91;5114463;28;19920;-72
2021/08/30 03:57:58;;;;;;;19.88;14.38;;;19.60;99.90;;;19.63;75.14;102008.53;5114103;28;20467;-72
2021/08/30 04:00:28;;;;;;;26.08;15.10;;;19.50;99.90;;;19.52;75.11;101997.19;5113766;28;20039;-72
2021/08/30 04:03:01;;;;;;;20.73;14.95;;;19.50;99.90;;;19.86;75.45;102048.28;5114159;28;20092;-72
2021/08/30 04:05:32;;;;;;;21.42;13.38;;;19.60;99.90;;;19.85;75.41;102044.72;5114034;28;20039;-72
2021/08/30 04:08:01;;;;;;;22.55;15.57;;;19.50;99.90;;;19.50;76.02;102028.53;5113602;28;20497;-72
2021/08/30 04:10:31;;;;;;;22.70;14.32;;;19.30;99.90;;;19.77;75.86;102046.69;5113878;28;20054;-72
2021/08/30 04:13:01;;;;;;;19.50;14.73;;;19.40;99.90;;;19.79;75.58;102051.13;5095502;28;20047;-73
2021/08/30 04:15:31;;;;;;;22.65;14.70;;;19.50;99.90;;;19.77;75.54;102052.06;5113771;28;20413;-72
2021/08/30 04:18:00;;;;;;;21.00;15.23;;;19.50;99.90;;;19.71;75.71;102053.09;5113725;28;20075;-74
2021/08/30 04:20:28;;;;;;;21.85;14.60;;;19.40;99.90;;;19.64;75.97;102056.84;5113289;28;20130;-73
2021/08/30 04:22:58;;;;;;;20.63;15.35;;;19.30;99.90;;;19.71;76.10;102061.16;5113667;28;20047;-73
2021/08/30 04:25:27;;;;;;;21.33;15.30;;;19.30;99.90;;;19.68;75.98;102063.94;5113664;28;20047;-70
2021/08/30 04:27:55;;;;;;;28.05;16.20;;;19.30;99.90;;;19.74;75.83;102062.91;5095327;28;20298;-72
2021/08/30 04:30:23;;;;;;;23.52;16.23;;;19.40;99.90;;;19.69;76.01;102067.47;5113345;28;20414;-71
2021/08/30 04:32:54;;;;;;;23.92;15.25;;;19.40;99.90;;;19.73;75.81;102066.47;5113346;28;20073;-71
2021/08/30 04:35:24;;;;;;;21.85;14.68;;;19.40;99.90;;;19.68;75.82;102063.03;5113323;28;20052;-71
2021/08/30 04:37:52;;;;;;;24.23;14.98;;;19.40;99.90;;;19.66;76.06;102063.06;5113248;28;20092;-71
2021/08/30 04:40:22;;;;;;;22.70;14.80;;;19.30;99.90;;;19.66;76.13;102054.13;5113183;28;20544;-72
2021/08/30 04:42:51;;;;;;;18.65;14.50;;;19.30;99.90;;;19.55;76.00;102035.56;5095268;28;20406;-72
2021/08/30 04:45:19;;;;;;;19.15;15.07;;;19.30;99.90;;;19.73;75.86;102063.78;5113500;28;20047;-71
2021/08/30 04:47:48;;;;;;;19.35;15.05;;;19.40;99.90;;;19.63;75.99;102059.53;5113577;28;20048;-71
2021/08/30 04:50:16;;;;;;;26.05;15.20;;;19.30;99.90;;;19.68;76.08;102063.03;5095237;28;20421;-71
2021/08/30 04:52:45;;;;;;;19.50;14.63;;;19.30;99.90;;;19.66;76.17;102059.50;5113123;28;20054;-72
2021/08/30 04:55:14;;;;;;;22.83;14.40;;;19.30;99.90;;;19.73;75.96;102058.44;5113010;28;20108;-71
2021/08/30 04:57:44;;;;;;;19.10;14.45;;;19.30;99.90;;;19.68;76.03;102055.88;5094716;28;20047;-71
2021/08/30 05:00:13;;;;;;;21.10;14.95;;;19.30;99.90;;;19.70;76.24;102055.81;5113207;28;20063;-71
2021/08/30 05:02:42;;;;;;;22.73;15.35;;;19.30;99.90;;;19.76;75.80;102058.38;5112891;28;20059;-71
2021/08/30 05:05:11;;;;;;;21.85;14.07;;;19.30;99.90;;;19.68;76.02;102057.66;5113173;28;20044;-71
2021/08/30 05:07:39;;;;;;;20.83;14.88;;;19.30;99.90;;;19.60;76.60;102060.53;5112786;28;20123;-71
2021/08/30 05:10:09;;;;;;;20.58;14.40;;;19.20;99.90;;;19.57;76.71;102065.06;5112733;28;20513;-71
2021/08/30 05:12:37;;;;;;;23.73;15.07;;;19.20;99.90;;;19.73;76.35;102071.84;5094434;28;20035;-71
2021/08/30 05:15:08;;;;;;;20.98;15.90;;;19.40;99.90;;;19.64;76.52;102075.66;5094837;28;20047;-72
2021/08/30 05:17:37;;;;;;;21.15;15.10;;;19.30;99.90;;;19.69;76.79;102083.56;5113032;28;20047;-72
2021/08/30 05:20:07;;;;;;;21.77;15.65;;;19.30;99.90;;;19.65;76.79;102068.44;5112984;28;20036;-72
2021/08/30 05:22:36;;;;;;;21.40;14.23;;;19.30;99.90;;;19.50;76.84;102047.31;5113040;28;20043;-72
2021/08/30 05:25:05;;;;;;;25.23;15.13;;;19.40;99.90;;;19.54;76.90;102067.81;5112661;28;20201;-71
2021/08/30 05:27:33;;;;;;;23.77;15.25;;;19.30;99.90;;;19.69;77.13;102086.25;5117072;28;20075;-71
2021/08/30 05:30:02;;;;;;;24.50;14.75;;;19.30;99.90;;;19.76;77.32;102098.66;5116871;28;20043;-71
2021/08/30 05:32:32;;;;;;;21.33;15.52;;;19.40;99.90;;;19.82;77.35;102097.63;5117194;28;20118;-72
2021/08/30 05:35:00;;;;;;;19.73;15.05;;;19.50;99.90;;;19.80;77.43;102100.34;5116878;28;20459;-72
2021/08/30 05:37:29;;;;;;;22.75;15.48;;;19.40;99.90;;;19.89;77.29;102105.50;5116869;28;20039;-72
2021/08/30 05:39:57;;;;;;;22.83;15.00;;;19.50;99.90;;;19.89;77.34;102107.28;5116768;28;20039;-71
2021/08/30 05:42:25;;;;;;;22.15;14.80;;;19.50;99.90;;;19.94;77.21;102108.09;5116997;28;20077;-72
2021/08/30 05:44:54;;;;;;;21.33;15.02;;;19.60;99.90;;;20.00;77.14;102115.97;5116685;28;20043;-71
2021/08/30 05:47:22;;;;;;;20.02;14.55;;;19.60;99.90;;;20.06;77.31;102116.72;5116906;28;20043;-71
2021/08/30 05:49:53;;;;;;;20.92;14.98;;;19.70;99.90;;;20.11;77.34;102112.13;5116827;28;20150;-71
2021/08/30 05:52:23;;;;;;;21.30;14.65;;;19.70;99.90;;;20.20;77.30;102114.66;5116851;28;20063;-71
2021/08/30 05:54:52;;;;;;;20.75;15.55;;;19.90;99.90;;;20.25;76.92;102106.44;5117069;28;20048;-71
2021/08/30 05:57:21;;;;;;;21.08;15.18;;;19.90;99.90;;;20.15;77.35;102096.84;5116913;28;20043;-71
2021/08/30 05:59:49;;;;;;;22.30;15.10;;;19.90;99.90;;;20.27;77.34;102104.63;5098389;28;20423;-71
2021/08/30 06:02:17;;;;;;;22.50;14.65;;;19.90;99.90;;;20.30;77.52;102112.63;5116455;28;20035;-71
2021/08/30 06:04:46;;;;;;;20.58;15.45;;;19.90;99.90;;;20.39;77.41;102115.97;5116656;28;20048;-72
2021/08/30 06:07:16;;;;;;;22.85;14.65;;;20.00;99.90;;;20.42;77.30;102118.56;5116495;28;20044;-72
2021/08/30 06:09:45;;;;;;;21.83;14.95;;;20.10;99.90;;;20.46;77.25;102117.56;5098096;28;20052;-72
2021/08/30 06:12:13;;;;;;;23.63;14.88;;;20.10;99.90;;;20.46;77.36;102114.00;5116887;28;20054;-70
2021/08/30 06:14:42;;;;;;;21.35;15.38;;;20.10;99.90;;;20.45;77.57;102105.06;5116312;28;20040;-70
2021/08/30 06:17:10;;;;;;;22.30;15.38;;;20.20;99.90;;;20.57;77.49;102122.69;5116318;28;20466;-77
2021/08/30 06:19:38;;;;;;;22.20;15.05;;;20.30;99.90;;;20.48;77.81;102123.78;5116574;28;20127;-78
2021/08/30 06:22:08;;;;;;;26.75;15.50;;;20.20;99.90;;;20.56;77.68;102126.28;5116131;28;20122;-77
2021/08/30 06:24:40;;;;;;;24.83;15.70;;;20.20;99.90;;;20.53;77.86;102126.38;5116448;28;20448;-77
2021/08/30 06:27:09;;;;;;;27.05;16.58;;;20.20;99.90;;;20.51;77.91;102123.72;5116197;28;20077;-76
2021/08/30 06:29:38;;;;;;;22.10;16.50;;;20.20;99.90;;;20.27;77.90;102086.69;5116464;28;20048;-74
2021/08/30 06:32:08;;;;;;;23.33;15.88;;;20.20;99.90;;;20.09;78.08;102054.84;5115989;28;20118;-77
2021/08/30 06:34:36;;;;;;;21.08;15.27;;;20.20;99.90;;;20.53;78.28;102119.19;5116292;28;20035;-76
2021/08/30 06:37:05;;;;;;;26.98;15.38;;;20.20;99.90;;;20.51;78.25;102107.59;5114964;28;20427;-75
2021/08/30 06:39:33;;;;;;;24.83;16.30;;;20.30;99.90;;;20.54;78.17;102120.94;5116017;28;20054;-76
2021/08/30 06:42:04;;;;;;;21.50;15.85;;;20.30;99.90;;;20.57;77.88;102118.19;5115962;28;20035;-75
2021/08/30 06:44:33;;;;;;;21.35;14.57;;;20.30;99.90;;;20.53;78.11;102116.50;5116068;28;20101;-76
2021/08/30 06:47:01;;;;;;;22.23;14.80;;;20.30;99.90;;;20.52;78.25;102120.09;5115832;28;20050;-76
2021/08/30 06:49:30;;;;;;;22.42;15.32;;;20.30;99.90;;;20.43;78.17;102112.28;5115662;28;20452;-74
2021/08/30 06:51:58;;;;;;;22.20;15.88;;;20.20;99.90;;;20.50;78.21;102127.31;5115597;28;20119;-75
2021/08/30 06:54:27;;;;;;;19.63;15.35;;;20.20;99.90;;;20.48;78.36;102131.84;5115865;28;20048;-74
2021/08/30 06:56:55;;;;;;;22.95;15.35;;;20.20;99.90;;;20.44;78.34;102114.03;5115863;28;20051;-74
2021/08/30 06:59:25;;;;;;;23.17;15.32;;;20.20;99.90;;;20.44;78.34;102122.09;5115486;28;20052;-74
2021/08/30 07:01:53;;;;;;;21.25;15.02;;;20.10;99.90;;;20.37;78.17;102092.72;5115628;28;20078;-74
2021/08/30 07:04:22;;;;;;;20.90;15.25;;;20.20;99.90;;;20.56;78.19;102128.97;5115318;28;20198;-75
2021/08/30 07:06:51;;;;;;;26.90;16.08;;;20.20;99.90;;;20.58;78.12;102125.31;5097096;28;20039;-75
2021/08/30 07:09:19;;;;;;;22.13;14.75;;;20.30;99.90;;;20.57;78.07;102120.88;5115567;28;20389;-68
2021/08/30 07:11:48;;;;;;;23.58;15.43;;;20.30;99.90;;;20.55;78.18;102128.09;5115441;28;20513;-74
2021/08/30 07:14:17;;;;;;;20.30;15.20;;;20.30;99.90;;;20.63;77.98;102123.38;5115407;28;20154;-74
2021/08/30 07:16:46;;;;;;;25.40;15.57;;;20.30;99.90;;;20.63;77.88;102127.91;5097060;28;20052;-74
2021/08/30 07:19:15;;;;;;;21.05;14.77;;;20.30;99.90;;;20.66;77.86;102134.09;5115322;28;20047;-74
2021/08/30 07:21:43;;;;;;;23.05;14.90;;;20.30;99.90;;;20.69;77.66;102136.69;5115293;28;20067;-74
2021/08/30 07:24:12;;;;;;;21.20;14.98;;;20.30;99.90;;;20.62;77.68;102126.13;5115193;28;20052;-74
2021/08/30 07:26:40;;;;;;;29.98;15.80;;;20.30;99.90;;;20.68;77.79;102134.03;5115946;28;20122;-74
2021/08/30 07:29:08;;;;;;;24.15;16.27;;;20.30;99.90;;;20.73;77.95;102142.00;5115218;28;20067;-77
2021/08/30 07:31:38;;;;;;;24.75;16.63;;;20.40;99.90;;;20.72;77.88;102141.09;5115122;28;20437;-76
2021/08/30 07:34:07;;;;;;;27.60;16.23;;;20.40;99.90;;;20.66;77.90;102143.94;5115091;28;20085;-76
2021/08/30 07:36:36;;;;;;;29.83;16.33;;;20.30;99.90;;;20.73;77.84;102133.94;5114656;28;20036;-75
2021/08/30 07:39:04;;;;;;;24.85;15.18;;;20.40;99.90;;;20.69;77.63;102127.75;5114751;28;20313;-76
2021/08/30 07:41:33;;;;;;;23.13;15.98;;;20.50;99.90;;;20.80;77.65;102149.88;5096670;28;20040;-76
2021/08/30 07:44:01;;;;;;;30.40;16.27;;;20.50;99.90;;;20.78;77.73;102150.81;5114660;28;20085;-76
2021/08/30 07:46:30;;;;;;;26.60;16.15;;;20.50;99.90;;;20.79;77.57;102144.53;5114712;28;20452;-75
2021/08/30 07:48:58;;;;;;;22.38;15.93;;;20.50;99.90;;;20.53;77.69;102111.13;5114162;28;20071;-74
2021/08/30 07:51:28;;;;;;;27.75;16.95;;;20.50;99.90;;;20.82;77.66;102155.19;5114446;28;20101;-71
2021/08/30 07:53:58;;;;;;;27.80;17.90;;;20.50;99.90;;;20.89;77.71;102154.09;5114315;28;20050;-73
2021/08/30 07:56:26;;;;;;;22.27;16.80;;;20.50;99.90;;;20.89;77.40;102148.72;5114354;28;20579;-74
2021/08/30 07:58:54;;;;;;;22.38;16.65;;;20.50;99.90;;;20.94;77.33;102160.25;5114494;28;20043;-74
2021/08/30 08:01:23;;;;;;;21.33;15.85;;;20.60;99.90;;;20.94;77.39;102162.97;5114054;28;20473;-74
2021/08/30 08:03:52;;;;;;;23.80;17.20;;;20.60;99.90;;;21.01;77.08;102175.34;5114124;28;20490;-74
2021/08/30 08:06:20;;;;;;;23.10;15.57;;;20.60;99.90;;;21.02;77.06;102155.59;5114021;28;20447;-73
2021/08/30 08:08:50;;;;;;;26.48;17.00;;;20.70;99.90;;;21.01;77.15;102172.66;5114102;28;20047;-73
2021/08/30 08:11:19;;;;;;;22.23;17.48;;;20.70;99.90;;;20.83;76.78;102148.91;5114273;28;20044;-73
2021/08/30 08:13:47;;;;;;;25.55;16.85;;;20.60;99.90;;;21.02;76.84;102178.00;5114602;28;20036;-73
2021/08/30 08:16:16;;;;;;;24.58;16.23;;;20.70;99.90;;;20.84;76.64;102137.22;5114006;28;20043;-73
2021/08/30 08:18:45;;;;;;;26.98;17.58;;;20.70;99.90;;;21.03;76.63;102173.50;5113975;28;20094;-72
2021/08/30 08:21:13;;;;;;;35.10;18.35;;;20.60;99.90;;;20.84;76.62;102134.53;5113724;28;20137;-73
2021/08/30 08:23:42;;;;;;;24.27;16.63;;;20.70;99.90;;;21.01;76.36;102157.41;5114160;28;20131;-73
2021/08/30 08:26:14;;;;;;;26.67;17.67;;;20.70;99.90;;;20.95;76.26;102151.25;5113834;28;20035;-73
2021/08/30 08:28:44;;;;;;;28.95;18.70;;;20.70;99.90;;;21.06;76.16;102171.59;5114301;28;20055;-73
2021/08/30 08:31:13;;;;;;;35.88;19.42;;;20.70;99.90;;;21.07;76.37;102172.50;5114390;28;20055;-73
2021/08/30 08:33:44;;;;;;;26.85;18.45;;;20.70;99.90;;;21.16;76.19;102172.22;5095796;28;20526;-73
2021/08/30 08:36:13;;;;;;;25.90;19.58;;;20.80;99.90;;;21.22;76.41;102167.56;5113547;28;20097;-73
2021/08/30 08:38:41;;;;;;;31.92;18.13;;;20.80;99.90;;;21.30;76.05;102161.97;5113674;28;20400;-73
2021/08/30 08:41:09;;;;;;;28.08;17.67;;;21.00;99.90;;;21.34;75.48;102166.34;5113523;28;20044;-73
2021/08/30 08:43:40;;;;;;;25.73;16.70;;;21.00;99.90;;;21.38;75.56;102163.53;5113590;28;20516;-73
2021/08/30 08:46:09;;;;;;;25.58;16.50;;;21.00;99.90;;;21.49;75.17;102169.50;5113889;28;20051;-73
2021/08/30 08:48:37;;;;;;;24.88;16.10;;;21.20;99.90;;;21.47;74.80;102167.75;5095468;28;20084;-73
2021/08/30 08:51:06;;;;;;;25.23;15.05;;;21.20;99.90;;;21.54;74.71;102172.06;5113428;28;20105;-73
2021/08/30 08:53:34;;;;;;;23.58;14.98;;;21.20;99.90;;;21.55;74.86;102163.03;5113854;28;20035;-73
2021/08/30 08:56:03;;;;;;;26.85;14.18;;;21.30;99.90;;;21.56;74.72;102163.00;5095561;28;20079;-73
2021/08/30 08:58:31;;;;;;;26.83;14.13;;;21.20;99.90;;;21.58;74.81;102169.22;5113363;28;20614;-73
2021/08/30 09:01:10;;;;;;;28.35;14.68;;;21.30;99.90;;;21.58;74.85;102163.84;5112958;28;20067;-73
2021/08/30 09:03:45;;;;;;;26.17;12.95;;;21.30;99.90;;;21.42;74.65;102135.59;5095325;28;20051;-73
2021/08/30 09:06:25;;;;;;;22.75;12.93;;;21.30;99.90;;;21.59;74.82;102162.03;5113422;28;20451;-73
2021/08/30 09:08:59;;;;;;;23.05;13.02;;;21.30;99.90;;;21.66;74.87;102166.31;5113612;28;20154;-73
2021/08/30 09:11:36;;;;;;;23.88;13.32;;;21.30;99.90;;;21.61;75.26;102164.66;5113783;28;20044;-73
2021/08/30 09:14:16;;;;;;;25.67;13.02;;;21.30;99.90;;;21.66;75.22;102152.84;5113288;28;20043;-73
2021/08/30 09:16:47;;;;;;;27.90;12.85;;;21.30;99.90;;;21.12;75.25;102057.50;5095128;28;20379;-73
2021/08/30 09:19:18;;;;;;;22.13;12.77;;;21.40;99.90;;;21.73;75.28;102165.22;5113220;28;20114;-73
2021/08/30 09:21:49;;;;;;;27.77;13.77;;;21.40;99.90;;;21.72;75.59;102159.88;5113156;28;20459;-73
2021/08/30 09:24:19;;;;;;;28.67;13.73;;;21.40;99.90;;;21.58;75.49;102150.38;5113489;28;20092;-73
2021/08/30 09:26:53;;;;;;;27.17;14.27;;;21.40;99.90;;;21.49;75.55;102139.88;5113439;28;20199;-73
2021/08/30 09:29:27;;;;;;;25.42;13.63;;;21.40;99.90;;;21.63;75.64;102162.81;5113473;28;20047;-73
2021/08/30 09:32:03;;;;;;;25.30;14.80;;;21.30;99.90;;;21.56;76.12;102156.75;5113456;28;20040;-72
2021/08/30 09:34:35;;;;;;;21.00;13.48;;;21.30;99.90;;;21.55;75.71;102154.97;5113491;28;20403;-73
2021/08/30 09:37:05;;;;;;;22.65;14.18;;;21.30;99.90;;;21.68;75.75;102169.84;5113662;28;20062;-73
2021/08/30 09:39:34;;;;;;;26.55;13.80;;;21.30;99.90;;;21.67;75.55;102165.38;5113050;28;20048;-73
2021/08/30 09:42:06;;;;;;;27.15;14.63;;;21.30;99.90;;;21.59;75.10;102140.47;5113443;28;20035;-74
2021/08/30 09:44:35;;;;;;;24.55;15.43;;;21.40;99.90;;;21.72;75.17;102160.72;5113063;28;20094;-82
2021/08/30 09:47:14;;;;;;;23.63;15.15;;;21.40;99.90;;;21.84;75.02;102165.78;5112704;28;20399;-77
2021/08/30 09:49:43;;;;;;;28.35;14.57;;;21.50;99.90;;;21.79;74.81;102173.13;5113010;28;20063;-75
2021/08/30 09:52:11;;;;;;;26.83;14.93;;;21.50;99.90;;;21.70;74.63;102157.19;5113202;28;20089;-74
2021/08/30 09:54:40;;;;;;;31.45;15.40;;;21.50;99.90;;;21.70;74.59;102176.06;5112967;28;20036;-74
2021/08/30 09:57:08;;;;;;;23.83;13.20;;;21.40;99.90;;;21.76;74.63;102170.50;5112896;28;20483;-74
2021/08/30 09:59:39;;;;;;;28.50;14.20;;;21.50;99.90;;;21.71;74.67;102161.69;5112850;28;20067;-73
2021/08/30 10:02:08;;;;;;;;;;;21.50;99.90;;;21.82;74.75;102173.03;5095301;28;20047;-74
2021/08/30 10:04:40;;;;;;;24.38;13.55;;;21.60;99.90;;;21.84;74.50;102168.50;5112876;28;19926;-74
2021/08/30 10:07:10;;;;;;;29.13;16.45;;;21.60;99.90;;;21.73;74.28;102135.56;5113040;28;20466;-74
2021/08/30 10:09:42;;;;;;;24.15;15.43;;;21.70;99.90;;;21.92;73.91;102163.75;5113341;28;20059;-74
2021/08/30 10:12:10;;;;;;;21.27;13.55;;;21.70;99.90;;;21.91;73.68;102167.38;5115099;27;20075;-74
2021/08/30 10:14:39;;;;;;;24.77;14.00;;;21.70;99.90;;;21.94;73.51;102159.22;5116658;28;20126;-72
2021/08/30 10:17:08;;;;;;;20.20;13.35;;;21.70;99.90;;;22.02;73.33;102173.34;5116231;28;20118;-71